createdAt,value
2022-08-23T00:00:42.961Z,23.13
2022-08-23T00:03:11.871Z,23.12
2022-08-23T00:05:41.068Z,23.11
2022-08-23T00:08:09.972Z,23.10
2022-08-23T00:10:48.946Z,23.08
2022-08-23T00:13:17.549Z,23.05
2022-08-23T00:15:49.906Z,23.04
2022-08-23T00:18:22.295Z,23.04
2022-08-23T00:20:53.397Z,23.04
2022-08-23T00:23:24.843Z,23.05
2022-08-23T00:25:53.555Z,23.06
2022-08-23T00:28:22.174Z,23.05
2022-08-23T00:30:53.941Z,23.06
2022-08-23T00:33:22.421Z,23.06
2022-08-23T00:35:51.166Z,23.05
2022-08-23T00:38:34.743Z,23.04
2022-08-23T00:41:07.303Z,23.02
2022-08-23T00:43:58.127Z,23.01
2022-08-23T00:47:14.778Z,23.00
2022-08-23T00:49:50.287Z,23.00
2022-08-23T00:52:29.015Z,22.99
2022-08-23T00:54:58.292Z,22.98
2022-08-23T00:57:28.743Z,22.97
2022-08-23T00:59:57.349Z,22.96
2022-08-23T01:02:28.209Z,22.95
2022-08-23T01:05:00.703Z,22.95
2022-08-23T01:07:42.628Z,22.94
2022-08-23T01:10:20.091Z,22.95
2022-08-23T01:12:58.071Z,22.96
2022-08-23T01:15:32.711Z,22.97
2022-08-23T01:18:05.071Z,22.99
2022-08-23T01:20:39.415Z,22.99
2022-08-23T01:23:18.918Z,22.99
2022-08-23T01:25:47.941Z,22.99
2022-08-23T01:28:17.665Z,23.00
2022-08-23T01:30:48.336Z,22.96
2022-08-23T01:33:19.052Z,22.88
2022-08-23T01:35:52.862Z,22.81
2022-08-23T01:38:22.136Z,22.73
2022-08-23T01:40:51.652Z,22.68
2022-08-23T01:43:22.951Z,22.65
2022-08-23T01:45:54.503Z,22.63
2022-08-23T01:48:25.354Z,22.62
2022-08-23T01:50:53.863Z,22.61
2022-08-23T01:53:22.803Z,22.60
2022-08-23T01:55:52.028Z,22.60
2022-08-23T01:58:24.076Z,22.62
2022-08-23T02:01:04.311Z,22.64
2022-08-23T02:03:36.628Z,22.65
2022-08-23T02:06:07.499Z,22.66
2022-08-23T02:08:54.485Z,22.68
2022-08-23T02:11:37.387Z,22.70
2022-08-23T02:14:09.148Z,22.71
2022-08-23T02:17:03.870Z,22.68
2022-08-23T02:19:37.960Z,22.60
2022-08-23T02:22:10.838Z,22.54
2022-08-23T02:24:42.416Z,22.47
2022-08-23T02:27:14.260Z,22.41
2022-08-23T02:29:47.043Z,22.36
2022-08-23T02:32:18.067Z,22.32
2022-08-23T02:34:51.011Z,22.27
2022-08-23T02:37:29.174Z,22.25
2022-08-23T02:39:57.730Z,22.27
2022-08-23T02:42:26.392Z,22.29
2022-08-23T02:44:55.776Z,22.31
2022-08-23T02:47:26.851Z,22.35
2022-08-23T02:50:08.947Z,22.37
2022-08-23T02:52:46.967Z,22.39
2022-08-23T02:55:18.802Z,22.39
2022-08-23T02:57:47.804Z,22.39
2022-08-23T03:00:18.384Z,22.40
2022-08-23T03:02:47.147Z,22.39
2022-08-23T03:05:16.611Z,22.39
2022-08-23T03:07:45.480Z,22.39
2022-08-23T03:10:15.814Z,22.38
2022-08-23T03:12:48.724Z,22.38
2022-08-23T03:15:20.338Z,22.37
2022-08-23T03:17:49.981Z,22.36
2022-08-23T03:20:19.754Z,22.36
2022-08-23T03:22:54.611Z,22.36
2022-08-23T03:25:28.712Z,22.34
2022-08-23T03:28:20.802Z,22.34
2022-08-23T03:30:50.319Z,22.36
2022-08-23T03:33:39.703Z,22.35
2022-08-23T03:36:11.767Z,22.34
2022-08-23T03:38:41.826Z,22.33
2022-08-23T03:41:17.142Z,22.33
2022-08-23T03:43:46.205Z,22.33
2022-08-23T03:46:23.311Z,22.32
2022-08-23T03:48:58.062Z,22.33
2022-08-23T03:51:28.639Z,22.34
2022-08-23T03:53:58.452Z,22.36
2022-08-23T03:56:33.113Z,22.38
2022-08-23T03:59:06.751Z,22.39
2022-08-23T04:01:35.911Z,22.43
2022-08-23T04:04:05.890Z,22.47
2022-08-23T04:06:35.489Z,22.50
2022-08-23T04:09:04.371Z,22.54
2022-08-23T04:11:33.319Z,22.58
2022-08-23T04:14:07.640Z,22.64
2022-08-23T04:16:38.295Z,22.69
2022-08-23T04:19:08.849Z,22.83
2022-08-23T04:21:39.506Z,23.07
2022-08-23T04:24:08.462Z,23.35
2022-08-23T04:26:37.185Z,23.56
2022-08-23T04:29:06.692Z,23.68
2022-08-23T04:31:37.477Z,23.72
2022-08-23T04:34:08.795Z,23.73
2022-08-23T04:36:40.316Z,23.74
2022-08-23T04:39:13.469Z,23.78
2022-08-23T04:42:01.022Z,23.82
2022-08-23T04:44:30.263Z,23.88
2022-08-23T04:47:12.846Z,23.95
2022-08-23T04:49:41.942Z,24.06
2022-08-23T04:52:10.749Z,24.23
2022-08-23T04:54:41.482Z,24.43
2022-08-23T04:57:50.560Z,24.68
2022-08-23T05:00:27.905Z,24.85
2022-08-23T05:02:57.423Z,24.98
2022-08-23T05:05:36.238Z,25.06
2022-08-23T05:08:05.290Z,25.07
2022-08-23T05:10:33.906Z,25.06
2022-08-23T05:13:03.717Z,25.05
2022-08-23T05:15:32.250Z,25.02
2022-08-23T05:18:06.147Z,25.03
2022-08-23T05:20:37.954Z,25.10
2022-08-23T05:23:06.774Z,25.19
2022-08-23T05:25:51.522Z,25.30
2022-08-23T05:28:44.374Z,25.46
2022-08-23T05:31:18.689Z,25.64
2022-08-23T05:34:08.005Z,25.83
2022-08-23T05:36:59.864Z,26.07
2022-08-23T05:39:37.455Z,26.30
2022-08-23T05:42:13.087Z,26.51
2022-08-23T05:44:43.364Z,26.70
2022-08-23T05:47:15.135Z,26.91
2022-08-23T05:50:09.244Z,27.18
2022-08-23T05:52:38.706Z,27.33
2022-08-23T05:55:08.826Z,27.50
2022-08-23T05:58:06.955Z,27.82
2022-08-23T06:00:37.368Z,28.19
2022-08-23T06:03:09.462Z,28.64
2022-08-23T06:05:41.680Z,29.09
2022-08-23T06:08:10.469Z,29.52
2022-08-23T06:10:42.199Z,29.93
2022-08-23T06:13:20.974Z,30.33
2022-08-23T06:15:49.814Z,30.70
2022-08-23T06:18:20.405Z,31.11
2022-08-23T06:20:57.962Z,31.47
2022-08-23T06:23:41.508Z,31.90
2022-08-23T06:26:14.690Z,32.37
2022-08-23T06:28:50.858Z,32.92
2022-08-23T06:31:37.692Z,33.52
2022-08-23T06:34:12.179Z,34.23
2022-08-23T06:37:07.149Z,34.90
2022-08-23T06:39:57.404Z,35.45
2022-08-23T06:42:54.733Z,35.89
2022-08-23T06:45:35.288Z,36.16
2022-08-23T06:48:07.593Z,36.36
2022-08-23T06:50:36.102Z,36.52
2022-08-23T06:53:44.395Z,36.64
2022-08-23T06:56:34.994Z,36.63
2022-08-23T06:59:08.285Z,36.60
2022-08-23T07:02:05.281Z,36.53
2022-08-23T07:04:55.212Z,36.48
2022-08-23T07:07:44.477Z,36.42
2022-08-23T07:10:16.264Z,36.29
2022-08-23T07:12:45.410Z,36.09
2022-08-23T07:15:15.003Z,35.95
2022-08-23T07:17:46.317Z,35.84
2022-08-23T07:20:15.302Z,35.69
2022-08-23T07:22:45.626Z,35.50
2022-08-23T07:25:15.183Z,35.25
2022-08-23T07:27:48.264Z,35.02
2022-08-23T07:30:18.138Z,34.87
2022-08-23T07:32:47.482Z,34.74
2022-08-23T07:35:29.667Z,34.59
2022-08-23T07:38:05.677Z,34.39
2022-08-23T07:40:43.762Z,34.18
2022-08-23T07:43:23.075Z,33.99
2022-08-23T07:45:55.954Z,33.82
2022-08-23T07:48:50.364Z,33.60
2022-08-23T07:51:17.926Z,33.36
2022-08-23T07:53:46.691Z,33.18
2022-08-23T07:56:19.561Z,33.05
2022-08-23T07:59:14.602Z,32.95
2022-08-23T08:02:01.731Z,32.86
2022-08-23T08:04:30.782Z,32.74
2022-08-23T08:07:18.127Z,32.62
2022-08-23T08:09:49.555Z,32.44
2022-08-23T08:12:18.272Z,32.31
2022-08-23T08:14:48.395Z,32.21
2022-08-23T08:17:18.136Z,32.24
2022-08-23T08:20:19.583Z,32.38
2022-08-23T08:22:56.433Z,32.55
2022-08-23T08:25:30.476Z,32.71
2022-08-23T08:27:59.902Z,32.87
2022-08-23T08:30:32.266Z,33.04
2022-08-23T08:33:01.250Z,33.22
2022-08-23T08:35:31.389Z,33.38
2022-08-23T08:38:01.887Z,33.50
2022-08-23T08:40:36.109Z,33.49
2022-08-23T08:43:19.926Z,33.33
2022-08-23T08:45:59.819Z,33.02
2022-08-23T08:48:30.191Z,32.71
2022-08-23T08:51:02.943Z,32.41
2022-08-23T08:53:38.954Z,32.17
2022-08-23T08:56:21.173Z,31.94
2022-08-23T08:58:58.941Z,31.70
2022-08-23T09:01:31.938Z,31.49
2022-08-23T09:04:02.198Z,31.33
2022-08-23T09:06:41.883Z,31.19
2022-08-23T09:09:24.732Z,31.07
2022-08-23T09:12:13.021Z,30.96
2022-08-23T09:14:58.116Z,30.93
2022-08-23T09:17:38.139Z,30.95
2022-08-23T09:20:08.628Z,31.03
2022-08-23T09:22:41.390Z,31.14
2022-08-23T09:25:17.362Z,31.16
2022-08-23T09:27:56.760Z,31.17
2022-08-23T09:30:47.305Z,31.23
2022-08-23T09:33:20.477Z,31.35
2022-08-23T09:36:05.898Z,31.38
2022-08-23T09:38:35.306Z,31.38
2022-08-23T09:41:18.710Z,31.41
2022-08-23T09:43:48.340Z,31.42
2022-08-23T09:46:27.815Z,31.44
2022-08-23T09:48:58.332Z,31.56
2022-08-23T09:51:35.195Z,31.70
2022-08-23T09:54:06.951Z,31.77
2022-08-23T09:56:38.869Z,31.86
2022-08-23T09:59:27.734Z,31.98
2022-08-23T10:02:02.551Z,32.14
2022-08-23T10:04:44.094Z,32.28
2022-08-23T10:07:28.527Z,32.42
2022-08-23T10:10:15.224Z,32.54
2022-08-23T10:12:44.823Z,32.64
2022-08-23T10:15:15.450Z,32.75
2022-08-23T10:17:54.563Z,32.87
2022-08-23T10:20:35.506Z,32.94
2022-08-23T10:23:22.318Z,33.01
2022-08-23T10:25:57.403Z,33.12
2022-08-23T10:28:57.421Z,33.15
2022-08-23T10:31:34.468Z,33.11
2022-08-23T10:34:24.553Z,33.12
2022-08-23T10:37:08.391Z,33.15
2022-08-23T10:39:45.629Z,33.18
2022-08-23T10:42:33.942Z,33.16
2022-08-23T10:45:15.379Z,33.23
2022-08-23T10:48:03.991Z,33.32
2022-08-23T10:50:44.295Z,33.31
2022-08-23T10:53:33.825Z,33.17
2022-08-23T10:56:07.327Z,33.00
2022-08-23T10:58:45.301Z,32.91
2022-08-23T11:01:20.927Z,32.80
2022-08-23T11:04:00.007Z,32.68
2022-08-23T11:06:52.692Z,32.53
2022-08-23T11:09:50.215Z,32.40
2022-08-23T11:12:29.656Z,32.32
2022-08-23T11:15:12.468Z,32.22
2022-08-23T11:18:03.773Z,32.18
2022-08-23T11:21:02.555Z,32.11
2022-08-23T11:23:44.262Z,32.02
2022-08-23T11:27:06.596Z,31.96
2022-08-23T11:29:43.556Z,31.91
2022-08-23T11:32:44.870Z,31.84
2022-08-23T11:35:43.088Z,31.66
2022-08-23T11:38:15.037Z,31.46
2022-08-23T11:41:04.413Z,31.31
2022-08-23T11:43:37.638Z,31.20
2022-08-23T11:46:26.449Z,31.19
2022-08-23T11:49:55.324Z,31.14
2022-08-23T11:52:46.644Z,31.06
2022-08-23T11:55:31.674Z,31.03
2022-08-23T11:58:18.409Z,31.04
2022-08-23T12:00:58.874Z,31.04
2022-08-23T12:03:59.341Z,30.99
2022-08-23T12:06:40.590Z,30.92
2022-08-23T12:09:36.070Z,30.81
2022-08-23T12:12:25.710Z,30.71
2022-08-23T12:15:18.982Z,30.61
2022-08-23T12:18:14.797Z,30.58
2022-08-23T12:21:00.797Z,30.56
2022-08-23T12:23:30.835Z,30.57
2022-08-23T12:26:07.613Z,30.60
2022-08-23T12:28:42.995Z,30.62
2022-08-23T12:31:20.666Z,30.66
2022-08-23T12:34:38.360Z,30.67
2022-08-23T12:37:20.990Z,30.73
2022-08-23T12:39:55.271Z,30.77
2022-08-23T12:42:29.083Z,30.79
2022-08-23T12:48:48.305Z,30.70
2022-08-23T12:51:17.467Z,30.67
2022-08-23T12:53:46.138Z,30.67
2022-08-23T12:56:19.498Z,30.67
2022-08-23T12:58:53.611Z,30.68
2022-08-23T13:01:26.394Z,30.64
2022-08-23T13:04:07.079Z,30.59
2022-08-23T13:07:20.089Z,30.56
2022-08-23T13:10:21.553Z,30.58
2022-08-23T13:13:00.773Z,30.63
2022-08-23T13:15:50.395Z,30.67
2022-08-23T13:18:49.290Z,30.72
2022-08-23T13:21:39.634Z,30.74
2022-08-23T13:24:38.645Z,30.80
2022-08-23T13:28:09.726Z,30.80
2022-08-23T13:31:03.943Z,30.79
2022-08-23T13:33:34.170Z,30.78
2022-08-23T13:36:22.908Z,30.76
2022-08-23T13:38:55.560Z,30.75
2022-08-23T13:41:32.690Z,30.73
2022-08-23T13:44:10.243Z,30.71
2022-08-23T13:46:46.905Z,30.74
2022-08-23T13:49:19.676Z,30.76
2022-08-23T13:52:38.027Z,30.76
2022-08-23T13:54:54.118Z,30.78
2022-08-23T13:57:23.085Z,30.77
2022-08-23T13:59:54.871Z,30.72
2022-08-23T14:02:37.607Z,30.67
2022-08-23T14:05:08.186Z,30.61
2022-08-23T14:07:37.926Z,30.55
2022-08-23T14:10:10.012Z,30.47
2022-08-23T14:12:43.745Z,30.41
2022-08-23T14:15:13.592Z,30.34
2022-08-23T14:17:46.342Z,30.27
2022-08-23T14:20:33.342Z,30.20
2022-08-23T14:23:11.848Z,30.13
2022-08-23T14:25:43.735Z,30.08
2022-08-23T14:28:12.685Z,30.03
2022-08-23T14:30:41.628Z,29.99
2022-08-23T14:33:10.586Z,29.93
2022-08-23T14:35:39.425Z,29.89
2022-08-23T14:38:08.289Z,29.85
2022-08-23T14:40:37.066Z,29.83
2022-08-23T14:43:06.174Z,29.81
2022-08-23T14:45:34.720Z,29.79
2022-08-23T14:48:04.156Z,29.78
2022-08-23T14:50:33.632Z,29.76
2022-08-23T14:53:03.865Z,29.75
2022-08-23T14:55:32.764Z,29.75
2022-08-23T14:58:02.408Z,29.74
2022-08-23T15:00:31.605Z,29.74
2022-08-23T15:03:04.174Z,29.73
2022-08-23T15:05:35.341Z,29.72
2022-08-23T15:08:04.010Z,29.71
2022-08-23T15:13:29.834Z,29.68
2022-08-23T15:16:03.429Z,29.69
2022-08-23T15:18:33.605Z,29.70
2022-08-23T15:21:03.424Z,29.69
2022-08-23T15:23:32.132Z,29.69
2022-08-23T15:26:00.535Z,29.69
2022-08-23T15:28:30.593Z,29.66
2022-08-23T15:31:00.019Z,29.61
2022-08-23T15:33:30.975Z,29.54
2022-08-23T15:36:01.683Z,29.47
2022-08-23T15:38:31.218Z,29.38
2022-08-23T15:40:59.829Z,29.30
2022-08-23T15:43:33.921Z,29.21
2022-08-23T15:46:09.437Z,29.12
2022-08-23T15:48:43.630Z,29.04
2022-08-23T15:51:12.445Z,28.95
2022-08-23T15:53:40.883Z,28.86
2022-08-23T15:56:13.909Z,28.79
2022-08-23T15:58:42.388Z,28.70
2022-08-23T16:01:11.766Z,28.61
2022-08-23T16:03:42.777Z,28.54
2022-08-23T16:06:13.359Z,28.46
2022-08-23T16:08:45.616Z,28.39
2022-08-23T16:11:14.111Z,28.32
2022-08-23T16:13:44.916Z,28.25
2022-08-23T16:16:18.937Z,28.20
2022-08-23T16:18:48.079Z,28.14
2022-08-23T16:21:17.417Z,28.09
2022-08-23T16:23:47.549Z,28.04
2022-08-23T16:26:21.569Z,27.98
2022-08-23T16:28:52.431Z,27.93
2022-08-23T16:31:22.009Z,27.86
2022-08-23T16:34:09.760Z,27.79
2022-08-23T16:36:40.618Z,27.75
2022-08-23T16:39:10.186Z,27.71
2022-08-23T16:41:38.618Z,27.67
2022-08-23T16:44:07.675Z,27.62
2022-08-23T16:46:39.136Z,27.59
2022-08-23T16:49:07.735Z,27.54
2022-08-23T16:51:36.155Z,27.50
2022-08-23T16:54:05.676Z,27.44
2022-08-23T16:56:35.795Z,27.41
2022-08-23T16:59:07.088Z,27.38
2022-08-23T17:01:46.456Z,27.35
2022-08-23T17:04:15.516Z,27.32
2022-08-23T17:06:45.638Z,27.29
2022-08-23T17:09:14.519Z,27.25
2022-08-23T17:11:44.330Z,27.22
2022-08-23T17:14:13.028Z,27.18
2022-08-23T17:16:43.918Z,27.14
2022-08-23T17:19:13.631Z,27.11
2022-08-23T17:21:43.636Z,27.06
2022-08-23T17:24:16.583Z,27.02
2022-08-23T17:26:46.464Z,26.98
2022-08-23T17:29:14.971Z,26.96
2022-08-23T17:31:43.986Z,26.95
2022-08-23T17:34:12.358Z,26.93
2022-08-23T17:36:47.703Z,26.92
2022-08-23T17:39:19.241Z,26.88
2022-08-23T17:41:48.154Z,26.86
2022-08-23T17:44:17.148Z,26.83
2022-08-23T17:46:47.035Z,26.79
2022-08-23T17:49:17.314Z,26.75
2022-08-23T17:51:46.233Z,26.71
2022-08-23T17:54:16.119Z,26.67
2022-08-23T17:56:50.421Z,26.62
2022-08-23T17:59:20.104Z,26.58
2022-08-23T18:01:48.561Z,26.53
2022-08-23T18:04:16.985Z,26.49
2022-08-23T18:06:48.854Z,26.45
2022-08-23T18:09:17.496Z,26.39
2022-08-23T18:11:47.421Z,26.36
2022-08-23T18:14:15.926Z,26.31
2022-08-23T18:16:45.577Z,26.26
2022-08-23T18:19:14.579Z,26.23
2022-08-23T18:21:46.512Z,26.20
2022-08-23T18:24:15.659Z,26.16
2022-08-23T18:27:03.364Z,26.14
2022-08-23T18:29:38.571Z,26.10
2022-08-23T18:32:08.192Z,26.06
2022-08-23T18:34:39.535Z,26.04
2022-08-23T18:37:09.069Z,26.01
2022-08-23T18:39:37.521Z,25.97
2022-08-23T18:42:09.037Z,25.93
2022-08-23T18:44:38.406Z,25.89
2022-08-23T18:47:07.393Z,25.85
2022-08-23T18:49:36.736Z,25.81
2022-08-23T18:52:07.267Z,25.77
2022-08-23T18:54:38.263Z,25.71
2022-08-23T18:57:07.442Z,25.66
2022-08-23T18:59:44.499Z,25.61
2022-08-23T19:02:13.570Z,25.56
2022-08-23T19:04:45.463Z,25.53
2022-08-23T19:07:15.005Z,25.51
2022-08-23T19:09:43.924Z,25.47
2022-08-23T19:12:13.875Z,25.44
2022-08-23T19:14:42.588Z,25.41
2022-08-23T19:17:12.358Z,25.38
2022-08-23T19:19:40.835Z,25.34
2022-08-23T19:22:09.288Z,25.33
2022-08-23T19:24:37.761Z,25.31
2022-08-23T19:27:06.315Z,25.29
2022-08-23T19:29:36.114Z,25.25
2022-08-23T19:32:08.648Z,25.23
2022-08-23T19:34:37.441Z,25.20
2022-08-23T19:37:10.769Z,25.19
2022-08-23T19:39:49.231Z,25.17
2022-08-23T19:42:19.975Z,25.15
2022-08-23T19:44:48.893Z,25.14
2022-08-23T19:47:20.346Z,25.12
2022-08-23T19:49:50.869Z,25.10
2022-08-23T19:52:19.634Z,25.08
2022-08-23T19:54:48.496Z,25.06
2022-08-23T19:57:16.968Z,25.05
2022-08-23T19:59:45.372Z,25.02
2022-08-23T20:02:13.880Z,25.01
2022-08-23T20:04:42.399Z,24.98
2022-08-23T20:07:11.415Z,24.95
2022-08-23T20:09:39.815Z,24.92
2022-08-23T20:12:10.716Z,24.90
2022-08-23T20:14:39.586Z,24.88
2022-08-23T20:17:08.147Z,24.87
2022-08-23T20:19:37.017Z,24.86
2022-08-23T20:22:24.183Z,24.85
2022-08-23T20:24:53.343Z,24.83
2022-08-23T20:27:25.472Z,24.83
2022-08-23T20:30:00.729Z,24.80
2022-08-23T20:32:30.644Z,24.79
2022-08-23T20:34:59.940Z,24.79
2022-08-23T20:37:30.491Z,24.78
2022-08-23T20:39:59.846Z,24.77
2022-08-23T20:42:28.401Z,24.76
2022-08-23T20:44:57.145Z,24.75
2022-08-23T20:47:25.737Z,24.75
2022-08-23T20:49:54.426Z,24.74
2022-08-23T20:52:22.782Z,24.74
2022-08-23T20:54:52.939Z,24.73
2022-08-23T20:57:22.066Z,24.74
2022-08-23T20:59:50.638Z,24.75
2022-08-23T21:02:19.228Z,24.74
2022-08-23T21:04:49.155Z,24.73
2022-08-23T21:07:17.751Z,24.72
2022-08-23T21:09:50.766Z,24.69
2022-08-23T21:12:19.422Z,24.67
2022-08-23T21:14:47.818Z,24.63
2022-08-23T21:17:16.342Z,24.59
2022-08-23T21:19:44.706Z,24.57
2022-08-23T21:22:13.242Z,24.54
2022-08-23T21:24:41.657Z,24.52
2022-08-23T21:27:10.122Z,24.50
2022-08-23T21:29:39.085Z,24.50
2022-08-23T21:32:07.732Z,24.48
2022-08-23T21:34:36.300Z,24.46
2022-08-23T21:37:04.925Z,24.43
2022-08-23T21:39:33.110Z,24.40
2022-08-23T21:42:02.042Z,24.37
2022-08-23T21:44:43.244Z,24.34
2022-08-23T21:47:11.980Z,24.31
2022-08-23T21:49:40.436Z,24.27
2022-08-23T21:52:08.839Z,24.24
2022-08-23T21:54:41.432Z,24.22
2022-08-23T21:57:11.908Z,24.20
2022-08-23T21:59:40.882Z,24.18
2022-08-23T22:02:09.293Z,24.17
2022-08-23T22:04:38.851Z,24.15
2022-08-23T22:07:07.226Z,24.14
2022-08-23T22:09:35.578Z,24.12
2022-08-23T22:12:05.796Z,24.09
2022-08-23T22:14:35.273Z,24.08
2022-08-23T22:17:05.178Z,24.08
2022-08-23T22:19:33.738Z,24.07
2022-08-23T22:22:02.966Z,24.06
2022-08-23T22:24:31.389Z,24.06
2022-08-23T22:26:59.992Z,24.06
2022-08-23T22:29:28.735Z,24.05
2022-08-23T22:31:57.085Z,24.03
2022-08-23T22:34:25.469Z,24.01
2022-08-23T22:36:56.090Z,24.00
2022-08-23T22:39:24.891Z,23.98
2022-08-23T22:41:54.461Z,23.96
2022-08-23T22:44:22.873Z,23.93
2022-08-23T22:46:51.239Z,23.89
2022-08-23T22:49:19.633Z,23.87
2022-08-23T22:51:49.173Z,23.85
2022-08-23T22:54:24.457Z,23.83
2022-08-23T22:56:53.723Z,23.83
2022-08-23T22:59:32.145Z,23.82
2022-08-23T23:02:03.630Z,23.82
2022-08-23T23:04:33.029Z,23.82
2022-08-23T23:07:01.780Z,23.83
2022-08-23T23:09:30.403Z,23.84
2022-08-23T23:11:58.899Z,23.82
2022-08-23T23:14:27.506Z,23.79
2022-08-23T23:16:56.074Z,23.77
2022-08-23T23:19:43.083Z,23.77
2022-08-23T23:22:14.530Z,23.75
2022-08-23T23:24:42.988Z,23.74
2022-08-23T23:27:11.452Z,23.72
2022-08-23T23:29:41.536Z,23.69
2022-08-23T23:32:10.050Z,23.65
2022-08-23T23:34:38.515Z,23.63
2022-08-23T23:37:06.898Z,23.61
2022-08-23T23:39:35.781Z,23.61
2022-08-23T23:42:04.843Z,23.61
2022-08-23T23:44:33.303Z,23.60
2022-08-23T23:47:02.110Z,23.59
2022-08-23T23:49:33.099Z,23.55
2022-08-23T23:52:04.111Z,23.53
2022-08-23T23:54:34.921Z,23.51
2022-08-23T23:57:03.984Z,23.51
2022-08-23T23:59:32.403Z,23.50
